Time;durP1;ratioP1;P1;durP2;ratioP2;P2;SDS_P1;SDS_P2;PMS_P1;PMS_P2;Temp;Humidity;BMP_temperature;BMP_pressure;BME280_temperature;BME280_humidity;BME280_pressure;Samples;Min_cycle;Max_cycle;Signal;HPM_P1;HPM_P2
2022/12/04 00:01:09;;;;;;;7.72;5.18;;;16.50;48.10;;;;;;6185656;23;45342;-70
2022/12/04 00:03:36;;;;;;;8.02;5.03;;;16.50;48.20;;;;;;6184184;23;45473;-71
2022/12/04 00:06:06;;;;;;;10.73;5.95;;;16.50;48.10;;;;;;6181282;23;45419;-71
2022/12/04 00:08:33;;;;;;;10.30;5.75;;;16.50;48.20;;;;;;6183095;23;46262;-71
2022/12/04 00:11:00;;;;;;;9.77;5.10;;;16.50;48.30;;;;;;6181715;23;45230;-71
2022/12/04 00:13:27;;;;;;;9.77;5.38;;;16.50;48.20;;;;;;6184119;23;45289;-70
2022/12/04 00:15:54;;;;;;;10.48;5.75;;;16.50;48.20;;;;;;6181847;23;45309;-71
2022/12/04 00:18:21;;;;;;;10.13;4.97;;;16.50;48.00;;;;;;6183273;23;45323;-71
2022/12/04 00:20:48;;;;;;;11.32;5.60;;;16.50;48.20;;;;;;6183233;23;45298;-70
2022/12/04 00:23:17;;;;;;;9.95;5.50;;;16.50;48.10;;;;;;6182949;23;45264;-71
2022/12/04 00:25:47;;;;;;;8.32;5.55;;;16.50;48.30;;;;;;6183045;23;45202;-70
2022/12/04 00:28:15;;;;;;;8.95;5.20;;;16.50;48.30;;;;;;6182063;23;46286;-71
2022/12/04 00:30:42;;;;;;;11.07;5.65;;;16.50;48.10;;;;;;6183183;23;45268;-71
2022/12/04 00:33:09;;;;;;;11.73;5.95;;;16.50;48.10;;;;;;6183284;23;45224;-71
2022/12/04 00:35:36;;;;;;;10.25;5.82;;;16.50;48.00;;;;;;6182661;23;45427;-71
2022/12/04 00:38:03;;;;;;;9.65;5.18;;;16.50;47.50;;;;;;6182693;23;45684;-71
2022/12/04 00:40:31;;;;;;;10.65;5.50;;;16.50;47.10;;;;;;6182534;23;45315;-71
2022/12/04 00:42:58;;;;;;;8.40;5.45;;;16.40;47.00;;;;;;6183420;23;45355;-70
2022/12/04 00:45:25;;;;;;;9.82;5.45;;;16.50;46.80;;;;;;6183506;23;45664;-71
2022/12/04 00:47:51;;;;;;;11.02;5.82;;;16.40;46.50;;;;;;6180059;23;46369;-71
2022/12/04 00:50:18;;;;;;;10.30;5.63;;;16.40;45.80;;;;;;6181274;23;45780;-70
2022/12/04 00:52:45;;;;;;;9.75;5.90;;;16.40;45.80;;;;;;6181299;23;45242;-71
2022/12/04 00:55:12;;;;;;;9.15;5.75;;;16.40;45.80;;;;;;6183445;23;45434;-70
2022/12/04 00:57:40;;;;;;;9.43;5.43;;;16.40;45.60;;;;;;6181665;23;45291;-71
2022/12/04 01:00:08;;;;;;;10.75;5.53;;;16.40;45.50;;;;;;6183096;23;45229;-71
2022/12/04 01:02:35;;;;;;;10.30;5.78;;;16.40;45.90;;;;;;6183770;23;45372;-71
2022/12/04 01:05:02;;;;;;;10.23;5.60;;;16.40;46.00;;;;;;6182383;23;45260;-71
2022/12/04 01:07:29;;;;;;;9.07;5.45;;;16.40;46.20;;;;;;6182024;23;45273;-71
2022/12/04 01:09:56;;;;;;;8.80;5.20;;;16.40;46.50;;;;;;6182728;23;45312;-71
2022/12/04 01:12:23;;;;;;;9.38;5.85;;;16.40;46.60;;;;;;6182910;23;45419;-70
2022/12/04 01:14:51;;;;;;;10.65;6.15;;;16.40;46.70;;;;;;6183153;23;45517;-70
2022/12/04 01:17:18;;;;;;;9.88;5.40;;;16.40;46.80;;;;;;6181901;23;45368;-70
2022/12/04 01:19:45;;;;;;;8.95;5.45;;;16.40;47.00;;;;;;6183233;23;45339;-71
2022/12/04 01:22:11;;;;;;;9.30;5.20;;;16.40;47.00;;;;;;6182406;23;45249;-71
2022/12/04 01:24:38;;;;;;;9.70;5.90;;;16.40;47.00;;;;;;6183318;23;45285;-71
2022/12/04 01:27:05;;;;;;;10.45;5.63;;;16.40;47.20;;;;;;6181470;23;47760;-71
2022/12/04 01:29:32;;;;;;;11.02;5.93;;;16.50;47.40;;;;;;6183257;23;45298;-70
2022/12/04 01:32:00;;;;;;;10.57;6.03;;;16.50;47.40;;;;;;6183099;23;45403;-71
2022/12/04 01:34:27;;;;;;;9.93;6.03;;;16.50;47.50;;;;;;6182411;23;45436;-71
2022/12/04 01:36:54;;;;;;;10.20;5.55;;;16.50;47.60;;;;;;6182041;23;45431;-70
2022/12/04 01:39:20;;;;;;;10.65;5.97;;;16.50;47.60;;;;;;6182154;23;45337;-71
2022/12/04 01:41:47;;;;;;;9.35;5.53;;;16.50;47.60;;;;;;6183241;23;45349;-71
2022/12/04 01:44:17;;;;;;;10.38;5.60;;;16.50;47.50;;;;;;6183166;23;45418;-71
2022/12/04 01:46:45;;;;;;;10.43;6.15;;;16.50;47.60;;;;;;6182082;23;45474;-70
2022/12/04 01:49:17;;;;;;;10.88;6.20;;;16.50;47.40;;;;;;6182973;23;45288;-71
2022/12/04 01:51:47;;;;;;;10.23;5.68;;;16.50;47.50;;;;;;6181230;23;45271;-70
2022/12/04 01:54:21;;;;;;;9.38;5.88;;;16.50;47.70;;;;;;6183311;23;45170;-70
2022/12/04 01:56:52;;;;;;;9.70;5.68;;;16.50;47.70;;;;;;6181776;23;46656;-70
2022/12/04 01:59:23;;;;;;;9.98;5.65;;;16.50;47.70;;;;;;6182726;23;45566;-71
2022/12/04 02:02:00;;;;;;;9.18;5.20;;;16.50;47.90;;;;;;6182561;23;45238;-70
2022/12/04 02:04:30;;;;;;;10.05;5.60;;;16.50;47.90;;;;;;6183054;23;45328;-71
2022/12/04 02:06:57;;;;;;;10.85;5.57;;;16.50;47.90;;;;;;6181443;23;46273;-71
2022/12/04 02:09:24;;;;;;;10.15;5.88;;;16.50;47.90;;;;;;6182123;23;45247;-71
2022/12/04 02:11:56;;;;;;;8.55;5.15;;;16.50;48.10;;;;;;6181883;23;45218;-71
2022/12/04 02:14:32;;;;;;;8.52;5.40;;;16.50;48.00;;;;;;6181928;23;45385;-70
2022/12/04 02:17:10;;;;;;;9.43;5.88;;;16.50;48.00;;;;;;6181938;23;46556;-70
2022/12/04 02:19:59;;;;;;;9.38;5.65;;;16.50;48.00;;;;;;6181513;23;45669;-71
2022/12/04 02:22:37;;;;;;;10.82;5.90;;;16.50;48.10;;;;;;6183128;23;45243;-71
2022/12/04 02:25:12;;;;;;;10.98;5.93;;;16.50;48.10;;;;;;6182559;23;45183;-70
2022/12/04 02:28:08;;;;;;;8.23;5.35;;;16.50;48.10;;;;;;6181018;23;47483;-70
2022/12/04 02:30:40;;;;;;;9.20;5.35;;;16.50;48.10;;;;;;6182902;23;45663;-70
2022/12/04 02:33:16;;;;;;;10.10;5.60;;;16.60;48.10;;;;;;6182182;23;45325;-70
2022/12/04 02:35:47;;;;;;;8.43;5.45;;;16.60;48.10;;;;;;6182814;23;45259;-70
2022/12/04 02:38:21;;;;;;;10.48;6.10;;;16.50;48.10;;;;;;6181219;23;46361;-71
2022/12/04 02:40:52;;;;;;;11.13;6.15;;;16.50;48.00;;;;;;6182325;23;45295;-71
2022/12/04 02:43:24;;;;;;;12.27;6.20;;;16.50;48.20;;;;;;6182064;23;45326;-71
2022/12/04 02:45:57;;;;;;;10.73;6.55;;;16.50;48.20;;;;;;6185498;23;45415;-70
2022/12/04 02:48:26;;;;;;;9.88;5.65;;;16.50;48.10;;;;;;6182442;23;46370;-71
2022/12/04 02:50:57;;;;;;;10.57;6.05;;;16.50;48.20;;;;;;6178974;23;45241;-71
2022/12/04 02:53:28;;;;;;;9.10;5.55;;;16.50;48.30;;;;;;6182831;23;45273;-71
2022/12/04 02:55:59;;;;;;;9.75;5.57;;;16.50;48.30;;;;;;6182074;23;45499;-71
2022/12/04 02:58:31;;;;;;;8.90;5.53;;;16.50;48.30;;;;;;6181893;23;48086;-71
2022/12/04 03:01:00;;;;;;;11.45;6.50;;;16.50;48.30;;;;;;6181999;23;45227;-71
2022/12/04 03:03:30;;;;;;;9.57;5.93;;;16.50;48.40;;;;;;6181755;23;45273;-70
2022/12/04 03:06:00;;;;;;;9.63;5.65;;;16.50;48.40;;;;;;6181931;23;45409;-70
2022/12/04 03:08:32;;;;;;;9.27;5.55;;;16.50;48.40;;;;;;6180895;23;46392;-71
2022/12/04 03:11:00;;;;;;;8.20;5.32;;;16.50;48.50;;;;;;6182018;23;45287;-71
2022/12/04 03:13:35;;;;;;;10.13;5.80;;;16.50;48.40;;;;;;6181572;23;45283;-70
2022/12/04 03:16:07;;;;;;;10.93;5.97;;;16.50;48.40;;;;;;6182102;23;45428;-70
2022/12/04 03:18:39;;;;;;;9.45;5.35;;;16.50;48.40;;;;;;6181260;23;48077;-71
2022/12/04 03:21:12;;;;;;;12.00;5.60;;;16.60;48.60;;;;;;6182133;23;45181;-71
2022/12/04 03:23:44;;;;;;;10.63;5.75;;;16.60;48.50;;;;;;6182886;23;45244;-70
2022/12/04 03:26:18;;;;;;;9.55;5.82;;;16.60;48.50;;;;;;6182250;23;45364;-72
2022/12/04 03:28:54;;;;;;;8.82;5.63;;;16.50;48.10;;;;;;6183640;23;48289;-71
2022/12/04 03:31:25;;;;;;;11.30;5.70;;;16.50;48.30;;;;;;6182706;23;45348;-70
2022/12/04 03:33:56;;;;;;;9.55;5.88;;;16.60;48.50;;;;;;6183823;23;45300;-70
2022/12/04 03:36:27;;;;;;;10.65;6.05;;;16.50;48.30;;;;;;6182415;23;45265;-71
2022/12/04 03:38:59;;;;;;;9.13;5.82;;;16.50;48.50;;;;;;6183425;23;46236;-70
2022/12/04 03:41:31;;;;;;;10.00;5.80;;;16.50;48.40;;;;;;6183554;23;45181;-70
2022/12/04 03:44:05;;;;;;;10.48;6.05;;;16.50;48.50;;;;;;6183102;23;45276;-71
2022/12/04 03:46:38;;;;;;;8.98;5.72;;;16.50;48.40;;;;;;6183073;23;45129;-71
2022/12/04 03:49:12;;;;;;;9.88;5.82;;;16.50;48.50;;;;;;6182482;23;46554;-71
2022/12/04 03:51:43;;;;;;;11.55;6.07;;;16.50;48.50;;;;;;6180387;23;45367;-70
2022/12/04 03:54:13;;;;;;;9.93;5.65;;;16.50;48.60;;;;;;6183267;23;45230;-71
2022/12/04 03:56:44;;;;;;;10.55;5.80;;;16.50;48.50;;;;;;6182743;23;45347;-71
2022/12/04 03:59:17;;;;;;;10.25;6.07;;;16.50;48.50;;;;;;6183187;23;47375;-71
2022/12/04 04:01:48;;;;;;;9.60;5.40;;;16.50;48.60;;;;;;6182914;23;45202;-71
2022/12/04 04:04:22;;;;;;;9.57;5.57;;;16.60;48.70;;;;;;6183861;23;45285;-71
2022/12/04 04:06:54;;;;;;;10.80;6.00;;;16.50;48.50;;;;;;6181992;23;45281;-70
2022/12/04 04:09:24;;;;;;;9.68;5.93;;;16.60;48.70;;;;;;6183488;23;48016;-71
2022/12/04 04:11:57;;;;;;;8.10;5.13;;;16.60;48.60;;;;;;6182286;23;45257;-71
2022/12/04 04:25:46;;;;;;;10.20;6.18;;;16.50;46.80;;;;;;6182377;23;45387;-70
2022/12/04 04:28:30;;;;;;;12.63;7.25;;;16.50;46.40;;;;;;6181134;23;45366;-71
2022/12/04 04:31:06;;;;;;;11.05;6.15;;;16.50;46.10;;;;;;6180617;23;46573;-70
2022/12/04 04:33:36;;;;;;;11.13;6.55;;;16.40;45.80;;;;;;6181372;23;45269;-70
2022/12/04 04:36:14;;;;;;;10.27;6.15;;;16.40;45.70;;;;;;6184077;23;45193;-70
2022/12/04 04:38:47;;;;;;;10.25;6.20;;;16.40;45.50;;;;;;6182680;23;45417;-70
2022/12/04 04:41:19;;;;;;;11.48;6.88;;;16.40;45.40;;;;;;6182342;23;45592;-71
2022/12/04 04:43:55;;;;;;;11.52;6.78;;;16.40;45.40;;;;;;6183192;23;45424;-70
2022/12/04 04:46:31;;;;;;;13.30;7.10;;;16.40;45.40;;;;;;6182635;23;45295;-70
2022/12/04 04:49:01;;;;;;;11.10;6.60;;;16.40;45.10;;;;;;6183260;23;45273;-70
2022/12/04 04:51:29;;;;;;;10.77;6.60;;;16.40;45.60;;;;;;6179393;23;46345;-70
2022/12/04 04:53:58;;;;;;;11.48;6.53;;;16.40;45.50;;;;;;6182151;23;45257;-70
2022/12/04 04:56:25;;;;;;;10.15;6.18;;;16.40;45.40;;;;;;6182251;23;45233;-70
2022/12/04 04:58:52;;;;;;;12.90;6.63;;;16.40;45.60;;;;;;6182928;23;45413;-70
2022/12/04 05:01:22;;;;;;;11.57;6.43;;;16.30;45.30;;;;;;6180414;23;46512;-70
2022/12/04 05:03:50;;;;;;;9.55;6.40;;;16.40;45.50;;;;;;6182975;23;45336;-71
2022/12/04 05:06:17;;;;;;;11.50;6.65;;;16.40;45.30;;;;;;6180968;23;45289;-71
2022/12/04 05:08:45;;;;;;;10.60;6.13;;;16.30;44.60;;;;;;6182235;23;45211;-71
2022/12/04 05:11:13;;;;;;;11.98;5.80;;;16.40;44.70;;;;;;6181134;23;45242;-71
2022/12/04 05:13:40;;;;;;;11.27;6.63;;;16.40;44.60;;;;;;6182638;23;45710;-70
2022/12/04 05:16:10;;;;;;;11.10;5.93;;;16.30;44.30;;;;;;6182523;23;45210;-71
2022/12/04 05:18:38;;;;;;;11.63;6.70;;;16.30;46.50;;;;;;6182265;23;45292;-70
2022/12/04 05:21:07;;;;;;;10.93;6.80;;;16.30;47.50;;;;;;6182720;23;46504;-70
2022/12/04 05:23:34;;;;;;;11.68;6.75;;;16.30;46.50;;;;;;6182523;23;45237;-71
2022/12/04 05:26:01;;;;;;;12.43;6.85;;;16.30;46.00;;;;;;6183136;23;45311;-70
2022/12/04 05:28:28;;;;;;;10.60;6.43;;;16.30;45.50;;;;;;6181777;23;45518;-71
2022/12/04 05:30:55;;;;;;;12.65;6.80;;;16.30;45.40;;;;;;6183008;23;46557;-69
2022/12/04 05:33:22;;;;;;;11.38;6.80;;;16.30;45.30;;;;;;6183700;23;45266;-70
2022/12/04 05:35:57;;;;;;;10.77;6.75;;;16.30;45.10;;;;;;6181952;23;45213;-71
2022/12/04 05:38:25;;;;;;;10.75;6.65;;;16.30;44.90;;;;;;6183017;23;45371;-70
2022/12/04 05:40:52;;;;;;;10.85;6.45;;;16.30;44.90;;;;;;6182126;23;45344;-70
2022/12/04 05:43:19;;;;;;;10.32;6.53;;;16.30;44.80;;;;;;6182808;23;45220;-71
2022/12/04 05:45:46;;;;;;;10.65;6.15;;;16.30;44.90;;;;;;6182547;23;45345;-70
2022/12/04 05:48:13;;;;;;;12.23;6.50;;;16.30;45.10;;;;;;6181507;23;45443;-70
2022/12/04 05:50:40;;;;;;;9.82;6.30;;;16.30;44.70;;;;;;6180974;23;46584;-71
2022/12/04 05:53:07;;;;;;;10.65;6.30;;;16.30;44.70;;;;;;6180144;23;45269;-71
2022/12/04 05:55:35;;;;;;;10.30;6.15;;;16.30;44.80;;;;;;6182804;23;45370;-71
2022/12/04 05:58:02;;;;;;;10.43;6.20;;;16.30;44.80;;;;;;6181589;23;45296;-71
2022/12/04 06:00:29;;;;;;;12.65;6.68;;;16.30;44.40;;;;;;6182735;23;45399;-71
2022/12/04 06:02:56;;;;;;;11.10;6.55;;;16.30;44.10;;;;;;6182878;23;45234;-71
2022/12/04 06:05:23;;;;;;;10.55;6.43;;;16.30;44.10;;;;;;6182164;23;45449;-71
2022/12/04 06:07:49;;;;;;;10.63;6.05;;;16.30;44.10;;;;;;6182218;23;45242;-71
2022/12/04 06:10:16;;;;;;;9.65;5.68;;;16.30;44.00;;;;;;6182108;23;46283;-71
2022/12/04 06:12:44;;;;;;;9.48;5.95;;;16.30;44.00;;;;;;6182351;23;45311;-70
2022/12/04 06:15:11;;;;;;;11.07;6.18;;;16.30;43.80;;;;;;6182605;23;45225;-71
2022/12/04 06:17:38;;;;;;;9.65;6.15;;;16.30;43.70;;;;;;6182021;23;45495;-71
2022/12/04 06:20:06;;;;;;;10.57;6.47;;;16.20;43.70;;;;;;6182341;23;45352;-70
2022/12/04 06:22:33;;;;;;;10.30;5.70;;;16.20;43.70;;;;;;6182063;23;45302;-71
2022/12/04 06:25:00;;;;;;;10.90;5.88;;;16.20;43.60;;;;;;6182831;23;45222;-71
2022/12/04 06:27:26;;;;;;;10.45;6.07;;;16.20;43.70;;;;;;6184298;23;45252;-71
2022/12/04 06:29:55;;;;;;;11.13;6.07;;;16.20;43.60;;;;;;6182296;23;45267;-71
2022/12/04 06:32:21;;;;;;;9.50;5.93;;;16.20;43.70;;;;;;6182814;23;45342;-71
2022/12/04 06:34:51;;;;;;;9.27;5.55;;;16.20;43.50;;;;;;6182085;23;45347;-71
2022/12/04 06:37:18;;;;;;;10.98;5.70;;;16.20;43.40;;;;;;6182065;23;45549;-71
2022/12/04 06:39:45;;;;;;;9.57;5.78;;;16.30;43.70;;;;;;6181873;23;46299;-71
2022/12/04 06:42:11;;;;;;;9.65;5.65;;;16.20;43.60;;;;;;6182611;23;45277;-71
2022/12/04 06:44:38;;;;;;;8.80;5.15;;;16.30;43.70;;;;;;6182340;23;45304;-71
2022/12/04 06:47:07;;;;;;;8.70;5.20;;;16.30;43.70;;;;;;6182015;23;45191;-71
2022/12/04 06:49:35;;;;;;;8.57;4.95;;;16.30;43.80;;;;;;6181229;23;46421;-71
2022/12/04 06:52:01;;;;;;;8.93;5.10;;;16.30;43.40;;;;;;6178111;23;45457;-71
2022/12/04 06:54:28;;;;;;;8.05;4.93;;;16.30;43.10;;;;;;6182025;23;45421;-71
2022/12/04 06:56:55;;;;;;;7.15;4.88;;;16.30;43.30;;;;;;6180643;23;45288;-71
2022/12/04 06:59:22;;;;;;;9.27;4.75;;;16.30;43.20;;;;;;6182880;23;45213;-71
2022/12/04 07:01:49;;;;;;;7.47;4.57;;;16.20;43.10;;;;;;6183845;23;45296;-70
2022/12/04 07:04:17;;;;;;;9.90;5.07;;;16.30;43.10;;;;;;6183262;23;45380;-71
2022/12/04 07:06:44;;;;;;;8.05;4.30;;;16.20;42.90;;;;;;6182271;23;45319;-71
2022/12/04 07:09:14;;;;;;;5.65;4.13;;;16.20;42.80;;;;;;6183428;23;46391;-71
2022/12/04 07:11:42;;;;;;;6.82;4.30;;;16.20;42.70;;;;;;6183403;22;45318;-71
2022/12/04 07:14:09;;;;;;;6.50;4.20;;;16.20;42.80;;;;;;6183162;23;45329;-71
2022/12/04 07:16:36;;;;;;;7.93;4.70;;;16.20;43.00;;;;;;6182423;23;45495;-71
2022/12/04 07:19:03;;;;;;;7.13;4.60;;;16.20;42.80;;;;;;6183089;23;47319;-71
2022/12/04 07:21:33;;;;;;;7.80;4.47;;;16.20;43.20;;;;;;6183042;23;45453;-70
2022/12/04 07:24:01;;;;;;;8.40;4.78;;;16.30;47.40;;;;;;6184492;23;45425;-70
2022/12/04 07:26:29;;;;;;;7.07;4.13;;;16.20;45.80;;;;;;6182511;23;45293;-70
2022/12/04 07:28:57;;;;;;;6.85;3.90;;;16.30;45.00;;;;;;6182942;23;46453;-70
2022/12/04 07:31:25;;;;;;;7.28;4.32;;;16.30;44.60;;;;;;6183319;23;45253;-70
2022/12/04 07:33:52;;;;;;;7.88;4.55;;;16.20;44.30;;;;;;6182139;23;45291;-70
2022/12/04 07:36:20;;;;;;;6.95;3.85;;;16.30;44.30;;;;;;6183370;23;45365;-71
2022/12/04 07:38:49;;;;;;;7.30;4.55;;;16.20;44.10;;;;;;6181444;23;47289;-70
2022/12/04 07:41:17;;;;;;;6.50;4.55;;;16.30;44.00;;;;;;6183307;23;45173;-71
2022/12/04 07:43:44;;;;;;;8.27;4.72;;;16.30;43.60;;;;;;6183166;23;45330;-71
2022/12/04 07:46:14;;;;;;;7.18;4.28;;;16.20;43.50;;;;;;6182107;23;45220;-71
2022/12/04 07:48:41;;;;;;;6.90;4.40;;;16.20;43.30;;;;;;6182134;23;45164;-71
2022/12/04 07:51:11;;;;;;;8.55;4.55;;;16.20;43.30;;;;;;6177117;23;45257;-71
2022/12/04 07:53:39;;;;;;;7.57;4.13;;;16.20;43.00;;;;;;6182719;23;45445;-71
2022/12/04 07:56:08;;;;;;;5.82;3.63;;;16.20;43.00;;;;;;6181852;23;45245;-70
2022/12/04 07:58:35;;;;;;;6.20;4.00;;;16.20;42.90;;;;;;6180655;23;45260;-71
2022/12/04 08:01:07;;;;;;;6.95;4.32;;;16.20;42.90;;;;;;6181965;23;45269;-70
2022/12/04 08:03:34;;;;;;;7.22;4.25;;;16.10;42.70;;;;;;6182991;23;45277;-71
2022/12/04 08:06:01;;;;;;;7.00;4.18;;;16.20;43.00;;;;;;6182192;23;45439;-71
2022/12/04 08:08:29;;;;;;;7.03;4.05;;;16.20;43.00;;;;;;6182212;23;46590;-70
2022/12/04 08:10:56;;;;;;;5.95;3.50;;;16.10;42.80;;;;;;6180875;23;45233;-71
2022/12/04 08:13:24;;;;;;;5.65;3.90;;;16.10;43.10;;;;;;6183046;23;45325;-71
2022/12/04 08:15:51;;;;;;;6.35;3.95;;;16.10;42.90;;;;;;6181807;23;45464;-71
2022/12/04 08:18:18;;;;;;;6.13;3.83;;;16.10;42.70;;;;;;6182341;23;46257;-69
2022/12/04 08:20:46;;;;;;;7.32;3.70;;;16.20;42.90;;;;;;6181752;23;45366;-71
2022/12/04 08:23:12;;;;;;;6.40;3.83;;;16.20;44.20;;;;;;6183222;23;45264;-71
2022/12/04 08:25:40;;;;;;;6.45;3.85;;;16.20;43.20;;;;;;6183289;23;45240;-71
2022/12/04 08:28:07;;;;;;;6.00;3.83;;;16.20;43.00;;;;;;6181398;23;47221;-71
2022/12/04 08:30:36;;;;;;;6.45;3.95;;;16.20;42.90;;;;;;6182308;23;45273;-71
2022/12/04 08:33:03;;;;;;;6.10;3.53;;;16.20;42.80;;;;;;6182550;23;45251;-71
2022/12/04 08:35:30;;;;;;;6.07;4.30;;;16.20;42.60;;;;;;6183712;23;45439;-71
2022/12/04 08:37:57;;;;;;;6.53;4.25;;;16.20;42.60;;;;;;6182252;23;46993;-72
2022/12/04 08:40:23;;;;;;;6.28;4.13;;;16.20;42.70;;;;;;6180897;23;45276;-72
2022/12/04 08:42:50;;;;;;;5.95;4.13;;;16.20;42.60;;;;;;6182928;23;45227;-71
2022/12/04 08:45:17;;;;;;;6.32;4.00;;;16.20;42.70;;;;;;6181515;23;45518;-71
2022/12/04 08:47:45;;;;;;;5.97;3.95;;;16.20;42.80;;;;;;6181691;23;47054;-71
2022/12/04 08:50:12;;;;;;;6.30;4.07;;;16.20;42.80;;;;;;6182553;23;45292;-72
2022/12/04 08:52:39;;;;;;;5.45;3.90;;;16.20;42.80;;;;;;6180700;23;45309;-71
2022/12/04 08:55:06;;;;;;;4.87;3.60;;;16.10;42.50;;;;;;6180780;23;45217;-72
2022/12/04 08:57:33;;;;;;;5.15;3.85;;;16.20;42.70;;;;;;6180847;23;46511;-71
2022/12/04 09:00:00;;;;;;;4.80;3.40;;;16.10;42.30;;;;;;6181518;23;45348;-71
2022/12/04 09:02:27;;;;;;;5.53;3.75;;;16.10;42.40;;;;;;6181749;23;45290;-71
2022/12/04 09:04:55;;;;;;;5.72;3.38;;;16.20;42.50;;;;;;6182790;23;45368;-72
2022/12/04 09:07:22;;;;;;;5.30;3.33;;;16.20;42.60;;;;;;6181571;23;46217;-71
2022/12/04 09:09:48;;;;;;;5.13;3.00;;;16.20;42.50;;;;;;6182473;23;45232;-71
2022/12/04 09:12:15;;;;;;;4.47;3.10;;;16.20;42.70;;;;;;6180858;22;45281;-71
2022/12/04 09:14:42;;;;;;;4.55;3.13;;;16.20;42.60;;;;;;6181885;23;45466;-69
2022/12/04 09:17:09;;;;;;;5.32;3.35;;;16.20;42.60;;;;;;6182319;23;45240;-71
2022/12/04 09:19:36;;;;;;;4.53;2.83;;;16.20;42.80;;;;;;6182888;23;45178;-72
2022/12/04 09:22:04;;;;;;;4.60;2.97;;;16.20;42.90;;;;;;6182237;23;45442;-71
2022/12/04 09:24:31;;;;;;;4.18;2.67;;;16.20;43.10;;;;;;6182958;23;45288;-71
2022/12/04 09:26:57;;;;;;;5.00;2.92;;;16.20;44.90;;;;;;6181845;23;48220;-71
2022/12/04 09:29:25;;;;;;;4.03;2.72;;;16.20;45.10;;;;;;6182706;23;45429;-71
2022/12/04 09:31:52;;;;;;;4.38;2.83;;;16.20;44.20;;;;;;6183258;23;45296;-72
2022/12/04 09:34:18;;;;;;;4.40;2.70;;;16.20;43.80;;;;;;6182544;23;45401;-72
2022/12/04 09:36:45;;;;;;;3.88;2.60;;;16.20;43.50;;;;;;6182240;23;46562;-71
2022/12/04 09:39:13;;;;;;;4.95;3.00;;;16.10;43.30;;;;;;6181815;23;45482;-72
2022/12/04 09:41:55;;;;;;;4.50;2.95;;;16.20;43.00;;;;;;6182619;23;45404;-71
2022/12/04 09:44:27;;;;;;;4.15;2.60;;;16.10;42.80;;;;;;6183134;23;45367;-71
2022/12/04 09:46:59;;;;;;;4.22;2.75;;;16.10;42.60;;;;;;6181434;23;46293;-71
2022/12/04 09:49:29;;;;;;;3.22;2.40;;;16.10;42.70;;;;;;6182564;23;45169;-72
2022/12/04 09:52:00;;;;;;;3.78;2.60;;;16.10;42.70;;;;;;6181888;23;45345;-71
2022/12/04 09:54:32;;;;;;;6.18;3.40;;;16.10;42.50;;;;;;6183025;23;45208;-72
2022/12/04 09:57:01;;;;;;;4.65;2.90;;;16.10;42.50;;;;;;6181862;23;45324;-72
2022/12/04 09:59:30;;;;;;;4.93;2.83;;;16.10;42.50;;;;;;6182624;23;45143;-71
2022/12/04 10:02:03;;;;;;;6.55;3.15;;;16.20;42.30;;;;;;6182848;23;45349;-71
2022/12/04 10:04:30;;;;;;;4.22;2.92;;;16.10;42.30;;;;;;6181916;23;45324;-72
2022/12/04 10:07:04;;;;;;;5.57;3.10;;;16.10;42.10;;;;;;6181446;23;48293;-71
2022/12/04 10:09:42;;;;;;;4.63;2.95;;;16.10;42.20;;;;;;6182053;23;45404;-72
2022/12/04 10:12:19;;;;;;;4.32;2.58;;;16.20;44.20;;;;;;6179373;23;45402;-73
2022/12/04 10:15:04;;;;;;;4.45;2.72;;;16.20;42.70;;;;;;6182672;23;45510;-72
2022/12/04 10:17:51;;;;;;;5.65;2.70;;;16.40;50.00;;;;;;6179593;23;48411;-72
2022/12/04 10:20:36;;;;;;;5.18;2.80;;;16.50;49.30;;;;;;6182194;23;45220;-72
2022/12/04 10:23:10;;;;;;;6.43;2.92;;;16.50;49.00;;;;;;6182381;23;45596;-72
2022/12/04 10:25:39;;;;;;;4.13;2.75;;;16.50;49.00;;;;;;6183141;23;45371;-72
2022/12/04 10:28:19;;;;;;;4.10;2.65;;;16.60;49.20;;;;;;6181067;23;46345;-72
2022/12/04 10:30:48;;;;;;;3.85;2.50;;;16.60;49.00;;;;;;6181708;23;45261;-71
2022/12/04 10:33:20;;;;;;;3.88;2.70;;;16.60;49.00;;;;;;6182794;23;45207;-72
2022/12/04 10:35:51;;;;;;;3.97;2.65;;;16.60;48.80;;;;;;6182839;23;45570;-71
2022/12/04 10:38:28;;;;;;;3.67;2.75;;;16.60;49.00;;;;;;6182892;23;47490;-72
2022/12/04 10:41:00;;;;;;;4.72;2.40;;;16.60;49.00;;;;;;6182518;23;45309;-72
2022/12/04 10:43:36;;;;;;;3.70;2.50;;;16.60;49.20;;;;;;6183038;23;45429;-72
2022/12/04 10:46:03;;;;;;;4.43;2.70;;;16.60;49.30;;;;;;6183432;23;45356;-71
2022/12/04 10:48:35;;;;;;;4.32;2.50;;;16.60;49.60;;;;;;6181796;23;46544;-72
2022/12/04 10:51:02;;;;;;;3.55;2.55;;;16.70;49.10;;;;;;6183497;23;45376;-72
2022/12/04 10:53:32;;;;;;;3.45;2.33;;;16.70;49.90;;;;;;6183235;23;45311;-72
2022/12/04 10:56:13;;;;;;;3.50;2.40;;;16.70;49.80;;;;;;6186211;23;45378;-72
2022/12/04 10:58:40;;;;;;;3.45;2.45;;;16.80;49.90;;;;;;6183400;23;45364;-72
2022/12/04 11:01:10;;;;;;;3.58;2.40;;;16.70;50.00;;;;;;6183112;23;45321;-72
2022/12/04 11:03:37;;;;;;;3.75;2.63;;;16.80;50.00;;;;;;6184420;23;45456;-72
2022/12/04 11:06:06;;;;;;;4.15;2.55;;;16.80;50.10;;;;;;6182616;23;45240;-71
2022/12/04 11:08:37;;;;;;;4.60;2.42;;;16.80;50.10;;;;;;6183327;23;47201;-71
2022/12/04 11:11:06;;;;;;;4.13;2.28;;;16.80;50.20;;;;;;6180626;22;45506;-72
2022/12/04 11:13:35;;;;;;;3.65;2.40;;;16.80;50.10;;;;;;6183733;23;45238;-72
2022/12/04 11:16:02;;;;;;;4.53;2.63;;;16.80;50.00;;;;;;6182887;23;45410;-72
2022/12/04 11:18:30;;;;;;;5.53;2.40;;;16.80;50.10;;;;;;6182726;23;46477;-71
2022/12/04 11:21:00;;;;;;;5.97;2.58;;;16.80;50.10;;;;;;6183575;23;45202;-72
2022/12/04 11:23:29;;;;;;;5.97;2.55;;;16.80;50.10;;;;;;6183351;23;45327;-72
2022/12/04 11:25:58;;;;;;;4.82;2.67;;;16.80;50.20;;;;;;6183756;23;45372;-72
2022/12/04 11:28:29;;;;;;;2.90;2.10;;;16.80;50.30;;;;;;6182064;23;46349;-72
2022/12/04 11:30:59;;;;;;;3.97;2.00;;;16.80;50.30;;;;;;6183757;23;45249;-71
2022/12/04 11:33:32;;;;;;;3.38;2.30;;;16.80;50.50;;;;;;6183204;23;45233;-72
2022/12/04 11:36:01;;;;;;;3.72;2.33;;;16.80;50.50;;;;;;6183354;23;45570;-72
2022/12/04 11:38:30;;;;;;;2.92;2.10;;;16.80;50.30;;;;;;6182880;23;45308;-72
2022/12/04 11:40:59;;;;;;;2.83;2.10;;;16.80;50.40;;;;;;6182589;23;45341;-72
2022/12/04 11:43:27;;;;;;;2.83;2.20;;;16.80;50.60;;;;;;6183887;23;45263;-72
2022/12/04 11:45:56;;;;;;;3.60;2.22;;;16.90;50.60;;;;;;6182130;23;45332;-72
2022/12/04 11:48:25;;;;;;;4.22;2.65;;;16.80;50.20;;;;;;6180611;23;45457;-72
2022/12/04 11:51:00;;;;;;;3.45;2.15;;;16.80;50.70;;;;;;6182617;23;45264;-71
2022/12/04 11:53:43;;;;;;;4.88;2.50;;;16.80;50.30;;;;;;6182585;23;45355;-71
2022/12/04 11:56:25;;;;;;;4.95;2.40;;;16.80;50.50;;;;;;6182538;23;45246;-72
2022/12/04 11:59:08;;;;;;;3.47;2.28;;;16.80;50.70;;;;;;6180846;23;45536;-71
2022/12/04 12:01:42;;;;;;;4.55;2.55;;;16.90;51.10;;;;;;6178706;23;45589;-71
2022/12/04 12:04:31;;;;;;;3.53;2.42;;;16.90;50.40;;;;;;6181459;23;45357;-72
2022/12/04 12:07:10;;;;;;;4.13;2.42;;;16.90;50.40;;;;;;6180047;23;45236;-72
2022/12/04 12:09:46;;;;;;;3.30;2.50;;;16.80;50.50;;;;;;6178631;23;46435;-72
2022/12/04 12:12:19;;;;;;;2.70;2.08;;;16.80;50.60;;;;;;6179315;23;45363;-72
2022/12/04 12:15:01;;;;;;;3.25;2.40;;;16.80;50.50;;;;;;6183039;23;45276;-72
2022/12/04 12:17:39;;;;;;;3.50;2.45;;;16.90;52.00;;;;;;6181530;23;45629;-72
2022/12/04 12:20:16;;;;;;;2.92;2.22;;;16.90;51.00;;;;;;6183462;23;46246;-72
2022/12/04 12:22:57;;;;;;;3.92;2.25;;;16.80;50.70;;;;;;6182493;23;45331;-71
2022/12/04 12:25:32;;;;;;;3.83;2.38;;;16.90;50.80;;;;;;6182071;23;45284;-72
2022/12/04 12:28:12;;;;;;;4.10;2.25;;;16.90;50.70;;;;;;6182236;23;45412;-72
2022/12/04 12:30:49;;;;;;;3.88;2.50;;;16.90;51.10;;;;;;6182287;23;47320;-71
2022/12/04 12:33:21;;;;;;;3.22;2.55;;;16.80;51.10;;;;;;6182466;23;45301;-72
2022/12/04 12:35:58;;;;;;;4.25;2.20;;;16.90;51.20;;;;;;6181864;23;45339;-72
2022/12/04 12:38:27;;;;;;;3.45;2.38;;;16.90;51.10;;;;;;6181116;23;45300;-72
2022/12/04 12:40:58;;;;;;;3.55;2.20;;;16.90;51.10;;;;;;6181544;23;45289;-72
2022/12/04 12:43:30;;;;;;;2.85;2.10;;;16.90;51.10;;;;;;6182396;23;45221;-72
2022/12/04 12:46:01;;;;;;;3.92;2.42;;;16.90;51.10;;;;;;6182707;23;45309;-72
2022/12/04 12:48:35;;;;;;;3.38;2.17;;;16.90;51.10;;;;;;6182329;23;45211;-72
2022/12/04 12:51:08;;;;;;;3.40;2.42;;;16.90;51.20;;;;;;6182739;23;45424;-72
2022/12/04 12:53:40;;;;;;;3.95;2.33;;;17.00;51.20;;;;;;6182387;23;45322;-71
2022/12/04 12:56:10;;;;;;;3.75;2.50;;;16.90;51.10;;;;;;6182872;23;45259;-71
2022/12/04 12:58:42;;;;;;;3.33;2.35;;;16.90;51.10;;;;;;6182879;23;45288;-71
2022/12/04 13:01:16;;;;;;;3.35;2.30;;;16.90;51.20;;;;;;6182559;23;48050;-72
2022/12/04 13:03:50;;;;;;;3.25;2.40;;;16.90;51.10;;;;;;6183096;23;45307;-72
2022/12/04 13:06:22;;;;;;;3.90;2.25;;;16.90;51.10;;;;;;6182233;23;45264;-72
2022/12/04 13:08:59;;;;;;;3.17;2.22;;;16.90;51.10;;;;;;6180718;23;45409;-72